sensor_id;sensor_type;location;lat;lon;timestamp;P1;durP1;ratioP1;P2;durP2;ratioP2
36189;SDS011;22232;50.914;13.858;2022-12-18T00:01:21;36.63;;;13.48;;
36189;SDS011;22232;50.914;13.858;2022-12-18T00:03:54;39.78;;;15.43;;
36189;SDS011;22232;50.914;13.858;2022-12-18T00:06:23;47.35;;;14.68;;
36189;SDS011;22232;50.914;13.858;2022-12-18T00:08:54;41.03;;;14.95;;
36189;SDS011;22232;50.914;13.858;2022-12-18T00:11:25;39.03;;;14.48;;
36189;SDS011;22232;50.914;13.858;2022-12-18T00:13:55;37.38;;;13.63;;
36189;SDS011;22232;50.914;13.858;2022-12-18T00:16:25;30.05;;;11.85;;
36189;SDS011;22232;50.914;13.858;2022-12-18T00:18:54;28.35;;;11.82;;
36189;SDS011;22232;50.914;13.858;2022-12-18T00:21:26;25.55;;;10.48;;
36189;SDS011;22232;50.914;13.858;2022-12-18T00:23:55;24.33;;;10.18;;
36189;SDS011;22232;50.914;13.858;2022-12-18T00:26:23;23.23;;;10.63;;
36189;SDS011;22232;50.914;13.858;2022-12-18T00:29:05;25.00;;;11.25;;
36189;SDS011;22232;50.914;13.858;2022-12-18T00:31:42;24.15;;;10.30;;
36189;SDS011;22232;50.914;13.858;2022-12-18T00:34:11;30.23;;;11.60;;
36189;SDS011;22232;50.914;13.858;2022-12-18T00:36:39;28.33;;;11.68;;
36189;SDS011;22232;50.914;13.858;2022-12-18T00:39:09;26.40;;;10.13;;
36189;SDS011;22232;50.914;13.858;2022-12-18T00:41:38;28.65;;;12.35;;
36189;SDS011;22232;50.914;13.858;2022-12-18T00:44:25;27.73;;;10.88;;
36189;SDS011;22232;50.914;13.858;2022-12-18T00:46:52;27.85;;;10.90;;
36189;SDS011;22232;50.914;13.858;2022-12-18T00:49:20;22.17;;;9.55;;
36189;SDS011;22232;50.914;13.858;2022-12-18T00:51:48;22.33;;;9.65;;
36189;SDS011;22232;50.914;13.858;2022-12-18T00:54:16;21.02;;;9.27;;
36189;SDS011;22232;50.914;13.858;2022-12-18T00:56:44;25.00;;;10.05;;
36189;SDS011;22232;50.914;13.858;2022-12-18T00:59:17;20.63;;;9.05;;
36189;SDS011;22232;50.914;13.858;2022-12-18T01:01:45;20.00;;;8.30;;
36189;SDS011;22232;50.914;13.858;2022-12-18T01:04:14;20.27;;;7.57;;
36189;SDS011;22232;50.914;13.858;2022-12-18T01:06:44;17.20;;;7.60;;
36189;SDS011;22232;50.914;13.858;2022-12-18T01:09:12;15.35;;;7.22;;
36189;SDS011;22232;50.914;13.858;2022-12-18T01:11:40;19.02;;;8.80;;
36189;SDS011;22232;50.914;13.858;2022-12-18T01:14:10;23.98;;;8.48;;
36189;SDS011;22232;50.914;13.858;2022-12-18T01:16:38;19.15;;;7.53;;
36189;SDS011;22232;50.914;13.858;2022-12-18T01:19:05;18.15;;;7.90;;
36189;SDS011;22232;50.914;13.858;2022-12-18T01:21:33;17.67;;;7.15;;
36189;SDS011;22232;50.914;13.858;2022-12-18T01:24:03;18.67;;;7.40;;
36189;SDS011;22232;50.914;13.858;2022-12-18T01:26:31;17.20;;;7.43;;
36189;SDS011;22232;50.914;13.858;2022-12-18T01:28:59;20.00;;;7.60;;
36189;SDS011;22232;50.914;13.858;2022-12-18T01:31:27;17.05;;;7.72;;
36189;SDS011;22232;50.914;13.858;2022-12-18T01:33:57;17.30;;;7.47;;
36189;SDS011;22232;50.914;13.858;2022-12-18T01:36:28;17.90;;;7.75;;
36189;SDS011;22232;50.914;13.858;2022-12-18T01:39:05;19.88;;;7.68;;
36189;SDS011;22232;50.914;13.858;2022-12-18T01:41:41;19.83;;;7.65;;
36189;SDS011;22232;50.914;13.858;2022-12-18T01:50:13;16.80;;;6.57;;
36189;SDS011;22232;50.914;13.858;2022-12-18T01:52:49;18.67;;;8.20;;
36189;SDS011;22232;50.914;13.858;2022-12-18T01:55:47;19.05;;;7.10;;
36189;SDS011;22232;50.914;13.858;2022-12-18T01:58:18;19.73;;;8.05;;
36189;SDS011;22232;50.914;13.858;2022-12-18T02:00:50;16.67;;;7.70;;
36189;SDS011;22232;50.914;13.858;2022-12-18T02:03:19;16.00;;;7.30;;
36189;SDS011;22232;50.914;13.858;2022-12-18T02:05:48;23.17;;;7.60;;
36189;SDS011;22232;50.914;13.858;2022-12-18T02:08:22;17.42;;;7.75;;
36189;SDS011;22232;50.914;13.858;2022-12-18T02:11:04;17.33;;;7.10;;
36189;SDS011;22232;50.914;13.858;2022-12-18T02:25:19;21.70;;;9.05;;
36189;SDS011;22232;50.914;13.858;2022-12-18T02:28:01;17.40;;;6.88;;
36189;SDS011;22232;50.914;13.858;2022-12-18T02:30:33;20.25;;;8.07;;
36189;SDS011;22232;50.914;13.858;2022-12-18T02:33:06;19.00;;;6.70;;
36189;SDS011;22232;50.914;13.858;2022-12-18T02:35:37;13.30;;;5.75;;
36189;SDS011;22232;50.914;13.858;2022-12-18T02:38:08;18.10;;;7.05;;
36189;SDS011;22232;50.914;13.858;2022-12-18T02:40:38;16.95;;;6.75;;
36189;SDS011;22232;50.914;13.858;2022-12-18T02:43:12;20.05;;;7.60;;
36189;SDS011;22232;50.914;13.858;2022-12-18T02:45:48;19.02;;;7.32;;
36189;SDS011;22232;50.914;13.858;2022-12-18T02:48:28;16.00;;;7.20;;
36189;SDS011;22232;50.914;13.858;2022-12-18T02:51:03;21.55;;;8.68;;
36189;SDS011;22232;50.914;13.858;2022-12-18T02:53:57;18.33;;;8.15;;
36189;SDS011;22232;50.914;13.858;2022-12-18T02:56:38;17.40;;;7.55;;
36189;SDS011;22232;50.914;13.858;2022-12-18T02:59:13;18.98;;;7.57;;
36189;SDS011;22232;50.914;13.858;2022-12-18T03:04:33;17.85;;;7.97;;
36189;SDS011;22232;50.914;13.858;2022-12-18T03:07:12;16.35;;;6.20;;
36189;SDS011;22232;50.914;13.858;2022-12-18T03:09:48;19.10;;;6.93;;
36189;SDS011;22232;50.914;13.858;2022-12-18T03:18:30;16.63;;;7.20;;
36189;SDS011;22232;50.914;13.858;2022-12-18T03:21:04;21.10;;;8.13;;
36189;SDS011;22232;50.914;13.858;2022-12-18T03:23:47;18.45;;;7.55;;
36189;SDS011;22232;50.914;13.858;2022-12-18T03:28:53;19.73;;;8.60;;
36189;SDS011;22232;50.914;13.858;2022-12-18T03:31:27;25.08;;;9.85;;
36189;SDS011;22232;50.914;13.858;2022-12-18T03:34:04;29.83;;;11.35;;
36189;SDS011;22232;50.914;13.858;2022-12-18T03:36:41;25.58;;;11.23;;
36189;SDS011;22232;50.914;13.858;2022-12-18T03:39:10;27.38;;;11.35;;
36189;SDS011;22232;50.914;13.858;2022-12-18T03:47:30;36.97;;;15.20;;
36189;SDS011;22232;50.914;13.858;2022-12-18T03:52:49;37.20;;;15.98;;
36189;SDS011;22232;50.914;13.858;2022-12-18T03:55:28;38.63;;;15.10;;
36189;SDS011;22232;50.914;13.858;2022-12-18T03:58:03;39.47;;;15.93;;
36189;SDS011;22232;50.914;13.858;2022-12-18T04:00:47;42.35;;;16.38;;
36189;SDS011;22232;50.914;13.858;2022-12-18T04:03:17;36.88;;;15.63;;
36189;SDS011;22232;50.914;13.858;2022-12-18T04:05:52;40.63;;;15.65;;
36189;SDS011;22232;50.914;13.858;2022-12-18T04:08:23;39.80;;;15.77;;
36189;SDS011;22232;50.914;13.858;2022-12-18T04:11:00;43.95;;;16.08;;
36189;SDS011;22232;50.914;13.858;2022-12-18T04:13:33;43.65;;;16.27;;
36189;SDS011;22232;50.914;13.858;2022-12-18T04:16:07;41.60;;;16.30;;
36189;SDS011;22232;50.914;13.858;2022-12-18T04:21:08;44.35;;;17.08;;
36189;SDS011;22232;50.914;13.858;2022-12-18T04:23:37;38.92;;;15.57;;
36189;SDS011;22232;50.914;13.858;2022-12-18T04:26:06;36.97;;;16.35;;
36189;SDS011;22232;50.914;13.858;2022-12-18T04:28:51;41.25;;;15.40;;
36189;SDS011;22232;50.914;13.858;2022-12-18T04:31:21;40.72;;;15.73;;
36189;SDS011;22232;50.914;13.858;2022-12-18T04:33:49;40.97;;;15.75;;
36189;SDS011;22232;50.914;13.858;2022-12-18T04:36:17;35.50;;;14.88;;
36189;SDS011;22232;50.914;13.858;2022-12-18T04:38:45;43.53;;;16.23;;
36189;SDS011;22232;50.914;13.858;2022-12-18T04:41:15;43.70;;;16.13;;
36189;SDS011;22232;50.914;13.858;2022-12-18T04:43:46;44.75;;;17.33;;
36189;SDS011;22232;50.914;13.858;2022-12-18T04:46:14;49.35;;;17.77;;
36189;SDS011;22232;50.914;13.858;2022-12-18T04:48:41;47.80;;;18.33;;
36189;SDS011;22232;50.914;13.858;2022-12-18T04:51:12;40.63;;;17.13;;
36189;SDS011;22232;50.914;13.858;2022-12-18T04:53:39;47.10;;;16.70;;
36189;SDS011;22232;50.914;13.858;2022-12-18T04:56:09;37.47;;;15.35;;
36189;SDS011;22232;50.914;13.858;2022-12-18T04:58:39;43.95;;;16.77;;
36189;SDS011;22232;50.914;13.858;2022-12-18T05:01:08;43.75;;;16.23;;
36189;SDS011;22232;50.914;13.858;2022-12-18T05:03:36;42.58;;;15.90;;
36189;SDS011;22232;50.914;13.858;2022-12-18T05:10:17;48.60;;;17.80;;
36189;SDS011;22232;50.914;13.858;2022-12-18T05:12:45;45.70;;;17.08;;
36189;SDS011;22232;50.914;13.858;2022-12-18T05:15:30;48.28;;;17.80;;
36189;SDS011;22232;50.914;13.858;2022-12-18T05:17:59;42.78;;;17.33;;
36189;SDS011;22232;50.914;13.858;2022-12-18T05:20:27;43.70;;;17.17;;
36189;SDS011;22232;50.914;13.858;2022-12-18T05:22:55;43.40;;;17.85;;
36189;SDS011;22232;50.914;13.858;2022-12-18T05:25:23;41.90;;;17.60;;
36189;SDS011;22232;50.914;13.858;2022-12-18T05:27:51;45.40;;;18.10;;
36189;SDS011;22232;50.914;13.858;2022-12-18T05:30:18;48.22;;;17.73;;
36189;SDS011;22232;50.914;13.858;2022-12-18T05:32:46;44.33;;;16.08;;
36189;SDS011;22232;50.914;13.858;2022-12-18T05:35:13;50.47;;;18.25;;
36189;SDS011;22232;50.914;13.858;2022-12-18T05:37:41;43.08;;;16.17;;
36189;SDS011;22232;50.914;13.858;2022-12-18T05:40:09;45.45;;;16.42;;
36189;SDS011;22232;50.914;13.858;2022-12-18T05:42:38;45.70;;;17.88;;
36189;SDS011;22232;50.914;13.858;2022-12-18T05:45:06;44.05;;;17.73;;
36189;SDS011;22232;50.914;13.858;2022-12-18T05:47:34;45.05;;;16.70;;
36189;SDS011;22232;50.914;13.858;2022-12-18T05:50:01;47.38;;;17.27;;
36189;SDS011;22232;50.914;13.858;2022-12-18T05:52:30;48.35;;;18.05;;
36189;SDS011;22232;50.914;13.858;2022-12-18T05:54:57;53.15;;;18.13;;
36189;SDS011;22232;50.914;13.858;2022-12-18T05:57:26;41.53;;;16.40;;
36189;SDS011;22232;50.914;13.858;2022-12-18T05:59:53;49.75;;;18.77;;
36189;SDS011;22232;50.914;13.858;2022-12-18T06:02:21;49.38;;;18.95;;
36189;SDS011;22232;50.914;13.858;2022-12-18T06:04:49;50.50;;;18.60;;
36189;SDS011;22232;50.914;13.858;2022-12-18T06:07:16;52.53;;;19.75;;
36189;SDS011;22232;50.914;13.858;2022-12-18T06:09:44;51.58;;;18.85;;
36189;SDS011;22232;50.914;13.858;2022-12-18T06:12:12;47.10;;;17.80;;
36189;SDS011;22232;50.914;13.858;2022-12-18T06:14:39;51.97;;;18.90;;
36189;SDS011;22232;50.914;13.858;2022-12-18T06:17:07;46.35;;;17.90;;
36189;SDS011;22232;50.914;13.858;2022-12-18T06:19:34;45.92;;;18.95;;
36189;SDS011;22232;50.914;13.858;2022-12-18T06:22:02;48.30;;;17.73;;
36189;SDS011;22232;50.914;13.858;2022-12-18T06:24:30;45.70;;;17.67;;
36189;SDS011;22232;50.914;13.858;2022-12-18T06:26:57;45.75;;;18.17;;
36189;SDS011;22232;50.914;13.858;2022-12-18T06:29:25;46.65;;;17.63;;
36189;SDS011;22232;50.914;13.858;2022-12-18T06:31:52;42.28;;;17.40;;
36189;SDS011;22232;50.914;13.858;2022-12-18T06:34:20;48.15;;;16.70;;
36189;SDS011;22232;50.914;13.858;2022-12-18T06:36:48;44.05;;;17.67;;
36189;SDS011;22232;50.914;13.858;2022-12-18T06:39:16;41.22;;;16.23;;
36189;SDS011;22232;50.914;13.858;2022-12-18T06:41:43;44.20;;;17.30;;
36189;SDS011;22232;50.914;13.858;2022-12-18T06:44:11;39.08;;;15.77;;
36189;SDS011;22232;50.914;13.858;2022-12-18T06:46:39;40.00;;;16.90;;
36189;SDS011;22232;50.914;13.858;2022-12-18T06:49:07;49.63;;;17.90;;
36189;SDS011;22232;50.914;13.858;2022-12-18T06:51:36;45.15;;;16.98;;
36189;SDS011;22232;50.914;13.858;2022-12-18T06:54:04;45.05;;;17.05;;
36189;SDS011;22232;50.914;13.858;2022-12-18T06:56:32;54.88;;;17.65;;
36189;SDS011;22232;50.914;13.858;2022-12-18T06:58:59;45.08;;;17.38;;
36189;SDS011;22232;50.914;13.858;2022-12-18T07:01:27;44.17;;;16.80;;
36189;SDS011;22232;50.914;13.858;2022-12-18T07:03:56;50.72;;;17.88;;
36189;SDS011;22232;50.914;13.858;2022-12-18T07:06:25;42.08;;;16.98;;
36189;SDS011;22232;50.914;13.858;2022-12-18T07:08:53;43.00;;;16.67;;
36189;SDS011;22232;50.914;13.858;2022-12-18T07:11:21;43.03;;;16.05;;
36189;SDS011;22232;50.914;13.858;2022-12-18T07:13:49;41.63;;;16.23;;
36189;SDS011;22232;50.914;13.858;2022-12-18T07:16:17;48.45;;;15.93;;
36189;SDS011;22232;50.914;13.858;2022-12-18T07:18:52;38.05;;;16.02;;
36189;SDS011;22232;50.914;13.858;2022-12-18T07:21:22;42.67;;;15.65;;
36189;SDS011;22232;50.914;13.858;2022-12-18T07:23:50;42.90;;;16.77;;
36189;SDS011;22232;50.914;13.858;2022-12-18T07:26:19;40.72;;;16.42;;
36189;SDS011;22232;50.914;13.858;2022-12-18T07:28:48;46.10;;;17.13;;
36189;SDS011;22232;50.914;13.858;2022-12-18T07:31:19;40.65;;;15.93;;
36189;SDS011;22232;50.914;13.858;2022-12-18T07:33:49;45.88;;;17.38;;
36189;SDS011;22232;50.914;13.858;2022-12-18T07:36:17;49.60;;;16.00;;
36189;SDS011;22232;50.914;13.858;2022-12-18T07:38:48;38.35;;;15.40;;
36189;SDS011;22232;50.914;13.858;2022-12-18T07:41:18;43.92;;;15.93;;
36189;SDS011;22232;50.914;13.858;2022-12-18T07:43:46;43.33;;;16.88;;
36189;SDS011;22232;50.914;13.858;2022-12-18T07:46:14;42.17;;;16.65;;
36189;SDS011;22232;50.914;13.858;2022-12-18T07:48:44;43.40;;;15.23;;
36189;SDS011;22232;50.914;13.858;2022-12-18T07:51:16;38.22;;;15.02;;
36189;SDS011;22232;50.914;13.858;2022-12-18T07:53:44;41.70;;;16.65;;
36189;SDS011;22232;50.914;13.858;2022-12-18T07:56:15;35.10;;;14.55;;
36189;SDS011;22232;50.914;13.858;2022-12-18T07:58:58;35.42;;;14.38;;
36189;SDS011;22232;50.914;13.858;2022-12-18T08:01:26;36.38;;;14.98;;
36189;SDS011;22232;50.914;13.858;2022-12-18T08:03:54;34.97;;;14.98;;
36189;SDS011;22232;50.914;13.858;2022-12-18T08:06:22;37.38;;;14.73;;
36189;SDS011;22232;50.914;13.858;2022-12-18T08:08:54;31.38;;;14.18;;
36189;SDS011;22232;50.914;13.858;2022-12-18T08:11:23;36.65;;;13.95;;
36189;SDS011;22232;50.914;13.858;2022-12-18T08:13:52;35.53;;;15.00;;
36189;SDS011;22232;50.914;13.858;2022-12-18T08:16:21;40.63;;;15.02;;
36189;SDS011;22232;50.914;13.858;2022-12-18T08:18:49;37.80;;;14.70;;
36189;SDS011;22232;50.914;13.858;2022-12-18T08:21:25;47.47;;;16.08;;
36189;SDS011;22232;50.914;13.858;2022-12-18T08:23:58;43.83;;;17.27;;
36189;SDS011;22232;50.914;13.858;2022-12-18T08:26:27;40.63;;;16.30;;
36189;SDS011;22232;50.914;13.858;2022-12-18T08:28:57;41.05;;;16.00;;
36189;SDS011;22232;50.914;13.858;2022-12-18T08:31:26;39.63;;;16.35;;
36189;SDS011;22232;50.914;13.858;2022-12-18T08:33:55;42.20;;;16.17;;
36189;SDS011;22232;50.914;13.858;2022-12-18T08:36:24;40.60;;;17.17;;
36189;SDS011;22232;50.914;13.858;2022-12-18T08:38:53;43.33;;;18.20;;
36189;SDS011;22232;50.914;13.858;2022-12-18T08:41:21;49.13;;;17.48;;
36189;SDS011;22232;50.914;13.858;2022-12-18T08:43:49;43.20;;;17.58;;
36189;SDS011;22232;50.914;13.858;2022-12-18T08:46:39;40.25;;;17.30;;
36189;SDS011;22232;50.914;13.858;2022-12-18T08:49:09;41.67;;;16.73;;
36189;SDS011;22232;50.914;13.858;2022-12-18T08:51:37;41.83;;;17.35;;
36189;SDS011;22232;50.914;13.858;2022-12-18T08:54:06;47.97;;;18.30;;
36189;SDS011;22232;50.914;13.858;2022-12-18T08:56:34;40.30;;;17.13;;
36189;SDS011;22232;50.914;13.858;2022-12-18T08:59:01;38.80;;;16.13;;
36189;SDS011;22232;50.914;13.858;2022-12-18T09:01:29;40.25;;;15.90;;
36189;SDS011;22232;50.914;13.858;2022-12-18T09:03:58;38.90;;;15.77;;
36189;SDS011;22232;50.914;13.858;2022-12-18T09:06:25;36.08;;;14.95;;
36189;SDS011;22232;50.914;13.858;2022-12-18T09:08:53;42.08;;;15.52;;
36189;SDS011;22232;50.914;13.858;2022-12-18T09:11:24;34.45;;;14.43;;
36189;SDS011;22232;50.914;13.858;2022-12-18T09:16:22;32.22;;;13.23;;
36189;SDS011;22232;50.914;13.858;2022-12-18T09:18:58;38.65;;;14.38;;
36189;SDS011;22232;50.914;13.858;2022-12-18T09:21:28;41.88;;;15.88;;
36189;SDS011;22232;50.914;13.858;2022-12-18T09:23:59;39.63;;;14.50;;
36189;SDS011;22232;50.914;13.858;2022-12-18T09:26:27;34.38;;;14.45;;
36189;SDS011;22232;50.914;13.858;2022-12-18T09:28:54;37.78;;;15.23;;
36189;SDS011;22232;50.914;13.858;2022-12-18T09:31:23;41.65;;;14.98;;
36189;SDS011;22232;50.914;13.858;2022-12-18T09:33:51;39.78;;;14.80;;
36189;SDS011;22232;50.914;13.858;2022-12-18T09:36:19;41.15;;;16.10;;
36189;SDS011;22232;50.914;13.858;2022-12-18T09:38:47;41.90;;;15.10;;
36189;SDS011;22232;50.914;13.858;2022-12-18T09:41:17;32.83;;;13.32;;
36189;SDS011;22232;50.914;13.858;2022-12-18T09:43:54;39.22;;;14.25;;
36189;SDS011;22232;50.914;13.858;2022-12-18T09:46:31;36.08;;;13.50;;
36189;SDS011;22232;50.914;13.858;2022-12-18T09:49:07;34.75;;;14.20;;
36189;SDS011;22232;50.914;13.858;2022-12-18T09:54:15;35.20;;;13.98;;
36189;SDS011;22232;50.914;13.858;2022-12-18T09:57:00;36.80;;;14.30;;
36189;SDS011;22232;50.914;13.858;2022-12-18T09:59:32;38.20;;;14.45;;
36189;SDS011;22232;50.914;13.858;2022-12-18T10:02:16;35.33;;;13.20;;
36189;SDS011;22232;50.914;13.858;2022-12-18T10:04:48;34.90;;;13.98;;
36189;SDS011;22232;50.914;13.858;2022-12-18T10:07:40;32.38;;;12.95;;
36189;SDS011;22232;50.914;13.858;2022-12-18T10:10:38;35.08;;;13.52;;
36189;SDS011;22232;50.914;13.858;2022-12-18T10:18:34;34.53;;;14.00;;
36189;SDS011;22232;50.914;13.858;2022-12-18T10:24:26;33.15;;;13.40;;
36189;SDS011;22232;50.914;13.858;2022-12-18T10:27:22;30.08;;;12.45;;
36189;SDS011;22232;50.914;13.858;2022-12-18T10:29:53;35.28;;;12.48;;
36189;SDS011;22232;50.914;13.858;2022-12-18T10:32:22;31.10;;;12.10;;
36189;SDS011;22232;50.914;13.858;2022-12-18T10:34:56;30.95;;;12.68;;
36189;SDS011;22232;50.914;13.858;2022-12-18T10:37:28;35.67;;;13.20;;
36189;SDS011;22232;50.914;13.858;2022-12-18T10:40:13;33.22;;;14.00;;
36189;SDS011;22232;50.914;13.858;2022-12-18T10:45:39;36.38;;;14.88;;
36189;SDS011;22232;50.914;13.858;2022-12-18T10:48:19;37.38;;;16.05;;
36189;SDS011;22232;50.914;13.858;2022-12-18T10:50:49;39.05;;;16.05;;
36189;SDS011;22232;50.914;13.858;2022-12-18T10:53:39;39.83;;;15.15;;
36189;SDS011;22232;50.914;13.858;2022-12-18T10:56:09;38.85;;;15.98;;
36189;SDS011;22232;50.914;13.858;2022-12-18T10:58:38;47.17;;;18.25;;
36189;SDS011;22232;50.914;13.858;2022-12-18T11:01:11;49.65;;;19.65;;
36189;SDS011;22232;50.914;13.858;2022-12-18T11:06:19;41.38;;;16.48;;
36189;SDS011;22232;50.914;13.858;2022-12-18T11:09:03;47.45;;;19.42;;
36189;SDS011;22232;50.914;13.858;2022-12-18T11:11:40;51.00;;;20.48;;
36189;SDS011;22232;50.914;13.858;2022-12-18T11:14:16;54.88;;;20.35;;
36189;SDS011;22232;50.914;13.858;2022-12-18T11:16:49;58.88;;;21.15;;
36189;SDS011;22232;50.914;13.858;2022-12-18T11:19:39;56.50;;;21.88;;
36189;SDS011;22232;50.914;13.858;2022-12-18T11:22:18;53.50;;;20.23;;
36189;SDS011;22232;50.914;13.858;2022-12-18T11:24:58;52.10;;;19.85;;
36189;SDS011;22232;50.914;13.858;2022-12-18T11:33:50;42.67;;;17.10;;
36189;SDS011;22232;50.914;13.858;2022-12-18T11:36:45;42.80;;;17.83;;
36189;SDS011;22232;50.914;13.858;2022-12-18T11:39:17;49.85;;;18.50;;
36189;SDS011;22232;50.914;13.858;2022-12-18T11:41:56;41.75;;;17.17;;
36189;SDS011;22232;50.914;13.858;2022-12-18T11:47:49;49.35;;;18.95;;
36189;SDS011;22232;50.914;13.858;2022-12-18T11:50:43;47.75;;;17.17;;
36189;SDS011;22232;50.914;13.858;2022-12-18T11:53:12;52.08;;;19.23;;
36189;SDS011;22232;50.914;13.858;2022-12-18T11:58:27;46.42;;;19.17;;
36189;SDS011;22232;50.914;13.858;2022-12-18T12:06:45;49.35;;;18.30;;
36189;SDS011;22232;50.914;13.858;2022-12-18T12:09:26;43.60;;;17.40;;
36189;SDS011;22232;50.914;13.858;2022-12-18T12:18:29;47.53;;;18.77;;
36189;SDS011;22232;50.914;13.858;2022-12-18T12:21:09;53.90;;;19.58;;
36189;SDS011;22232;50.914;13.858;2022-12-18T12:26:36;52.83;;;20.23;;
36189;SDS011;22232;50.914;13.858;2022-12-18T12:38:08;58.85;;;21.05;;
36189;SDS011;22232;50.914;13.858;2022-12-18T12:40:45;57.78;;;21.50;;
36189;SDS011;22232;50.914;13.858;2022-12-18T12:46:17;62.03;;;20.17;;
36189;SDS011;22232;50.914;13.858;2022-12-18T12:48:50;59.08;;;22.45;;
36189;SDS011;22232;50.914;13.858;2022-12-18T12:51:28;67.57;;;20.95;;
36189;SDS011;22232;50.914;13.858;2022-12-18T12:53:59;59.67;;;21.48;;
36189;SDS011;22232;50.914;13.858;2022-12-18T12:56:34;64.07;;;20.70;;
36189;SDS011;22232;50.914;13.858;2022-12-18T12:59:21;62.65;;;21.73;;
36189;SDS011;22232;50.914;13.858;2022-12-18T13:02:18;57.30;;;19.95;;
36189;SDS011;22232;50.914;13.858;2022-12-18T13:10:37;59.00;;;20.88;;
36189;SDS011;22232;50.914;13.858;2022-12-18T13:13:11;57.85;;;21.80;;
36189;SDS011;22232;50.914;13.858;2022-12-18T13:16:05;54.72;;;19.67;;
36189;SDS011;22232;50.914;13.858;2022-12-18T13:18:35;61.75;;;19.40;;
36189;SDS011;22232;50.914;13.858;2022-12-18T13:21:22;48.22;;;18.35;;
36189;SDS011;22232;50.914;13.858;2022-12-18T13:23:51;50.67;;;19.38;;
36189;SDS011;22232;50.914;13.858;2022-12-18T13:28:55;44.67;;;17.67;;
36189;SDS011;22232;50.914;13.858;2022-12-18T13:36:55;45.85;;;16.77;;
36189;SDS011;22232;50.914;13.858;2022-12-18T13:39:43;41.88;;;15.63;;
36189;SDS011;22232;50.914;13.858;2022-12-18T13:45:01;46.92;;;16.70;;
36189;SDS011;22232;50.914;13.858;2022-12-18T13:48:18;43.75;;;15.88;;
36189;SDS011;22232;50.914;13.858;2022-12-18T13:51:01;46.35;;;15.70;;
36189;SDS011;22232;50.914;13.858;2022-12-18T13:53:34;47.25;;;16.35;;
36189;SDS011;22232;50.914;13.858;2022-12-18T13:56:07;44.72;;;16.75;;
36189;SDS011;22232;50.914;13.858;2022-12-18T13:58:35;54.35;;;17.38;;
36189;SDS011;22232;50.914;13.858;2022-12-18T14:01:02;52.17;;;18.10;;
36189;SDS011;22232;50.914;13.858;2022-12-18T14:03:31;50.20;;;17.35;;
36189;SDS011;22232;50.914;13.858;2022-12-18T14:06:00;51.08;;;17.33;;
36189;SDS011;22232;50.914;13.858;2022-12-18T14:08:33;45.75;;;16.55;;
36189;SDS011;22232;50.914;13.858;2022-12-18T14:11:05;53.42;;;17.80;;
36189;SDS011;22232;50.914;13.858;2022-12-18T14:13:38;46.42;;;17.55;;
36189;SDS011;22232;50.914;13.858;2022-12-18T14:16:11;48.00;;;16.45;;
36189;SDS011;22232;50.914;13.858;2022-12-18T14:18:43;48.80;;;17.52;;
36189;SDS011;22232;50.914;13.858;2022-12-18T14:21:17;50.08;;;17.98;;
36189;SDS011;22232;50.914;13.858;2022-12-18T14:23:48;50.33;;;17.77;;
36189;SDS011;22232;50.914;13.858;2022-12-18T14:26:20;46.05;;;16.85;;
36189;SDS011;22232;50.914;13.858;2022-12-18T14:28:48;36.22;;;13.95;;
36189;SDS011;22232;50.914;13.858;2022-12-18T14:31:18;41.45;;;15.65;;
36189;SDS011;22232;50.914;13.858;2022-12-18T14:33:49;53.20;;;17.40;;
36189;SDS011;22232;50.914;13.858;2022-12-18T14:36:18;42.58;;;15.60;;
36189;SDS011;22232;50.914;13.858;2022-12-18T14:38:51;44.08;;;16.65;;
36189;SDS011;22232;50.914;13.858;2022-12-18T14:41:23;48.40;;;16.25;;
36189;SDS011;22232;50.914;13.858;2022-12-18T14:43:52;48.13;;;16.92;;
36189;SDS011;22232;50.914;13.858;2022-12-18T14:49:17;43.50;;;15.60;;
36189;SDS011;22232;50.914;13.858;2022-12-18T14:52:00;43.72;;;16.23;;
36189;SDS011;22232;50.914;13.858;2022-12-18T14:54:30;40.45;;;15.88;;
36189;SDS011;22232;50.914;13.858;2022-12-18T14:59:31;51.00;;;16.53;;
36189;SDS011;22232;50.914;13.858;2022-12-18T15:05:05;48.67;;;16.45;;
36189;SDS011;22232;50.914;13.858;2022-12-18T15:07:45;49.45;;;17.27;;
36189;SDS011;22232;50.914;13.858;2022-12-18T15:10:21;47.67;;;16.52;;
36189;SDS011;22232;50.914;13.858;2022-12-18T15:20:43;57.42;;;18.10;;
36189;SDS011;22232;50.914;13.858;2022-12-18T15:23:20;49.80;;;17.70;;
36189;SDS011;22232;50.914;13.858;2022-12-18T15:25:54;55.53;;;17.27;;
36189;SDS011;22232;50.914;13.858;2022-12-18T15:36:20;47.03;;;16.17;;
36189;SDS011;22232;50.914;13.858;2022-12-18T15:38:53;50.08;;;16.92;;
36189;SDS011;22232;50.914;13.858;2022-12-18T15:41:34;53.35;;;17.20;;
36189;SDS011;22232;50.914;13.858;2022-12-18T15:44:14;48.58;;;15.73;;
36189;SDS011;22232;50.914;13.858;2022-12-18T15:46:53;47.45;;;16.25;;
36189;SDS011;22232;50.914;13.858;2022-12-18T15:49:23;49.38;;;16.38;;
36189;SDS011;22232;50.914;13.858;2022-12-18T15:51:54;40.38;;;15.60;;
36189;SDS011;22232;50.914;13.858;2022-12-18T15:54:25;49.50;;;15.52;;
36189;SDS011;22232;50.914;13.858;2022-12-18T15:57:11;47.25;;;16.17;;
36189;SDS011;22232;50.914;13.858;2022-12-18T15:59:52;41.30;;;15.40;;
36189;SDS011;22232;50.914;13.858;2022-12-18T16:02:22;40.60;;;16.33;;
36189;SDS011;22232;50.914;13.858;2022-12-18T16:04:51;40.65;;;15.35;;
36189;SDS011;22232;50.914;13.858;2022-12-18T16:07:19;45.22;;;15.25;;
36189;SDS011;22232;50.914;13.858;2022-12-18T16:09:52;41.10;;;15.40;;
36189;SDS011;22232;50.914;13.858;2022-12-18T16:12:22;41.20;;;16.00;;
36189;SDS011;22232;50.914;13.858;2022-12-18T16:14:52;47.65;;;15.70;;
36189;SDS011;22232;50.914;13.858;2022-12-18T16:17:21;42.42;;;14.90;;
36189;SDS011;22232;50.914;13.858;2022-12-18T16:19:48;41.72;;;15.10;;
36189;SDS011;22232;50.914;13.858;2022-12-18T16:22:21;42.47;;;14.88;;
36189;SDS011;22232;50.914;13.858;2022-12-18T16:24:51;47.05;;;15.52;;
36189;SDS011;22232;50.914;13.858;2022-12-18T16:27:20;42.38;;;14.52;;
36189;SDS011;22232;50.914;13.858;2022-12-18T16:29:48;41.08;;;14.00;;
36189;SDS011;22232;50.914;13.858;2022-12-18T16:32:16;40.42;;;13.23;;
36189;SDS011;22232;50.914;13.858;2022-12-18T16:34:47;40.17;;;14.32;;
36189;SDS011;22232;50.914;13.858;2022-12-18T16:37:15;36.58;;;14.63;;
36189;SDS011;22232;50.914;13.858;2022-12-18T16:39:43;39.60;;;13.60;;
36189;SDS011;22232;50.914;13.858;2022-12-18T16:42:17;44.05;;;14.68;;
36189;SDS011;22232;50.914;13.858;2022-12-18T16:44:47;39.10;;;14.05;;
36189;SDS011;22232;50.914;13.858;2022-12-18T16:47:16;36.05;;;13.55;;
36189;SDS011;22232;50.914;13.858;2022-12-18T16:49:44;40.72;;;13.43;;
36189;SDS011;22232;50.914;13.858;2022-12-18T16:52:12;36.47;;;13.77;;
36189;SDS011;22232;50.914;13.858;2022-12-18T16:54:40;39.30;;;14.25;;
36189;SDS011;22232;50.914;13.858;2022-12-18T16:57:08;42.83;;;14.35;;
36189;SDS011;22232;50.914;13.858;2022-12-18T16:59:39;39.10;;;14.15;;
36189;SDS011;22232;50.914;13.858;2022-12-18T17:02:13;45.35;;;14.75;;
36189;SDS011;22232;50.914;13.858;2022-12-18T17:04:45;46.58;;;15.00;;